Terminal Aerodrome Forecast
Issued by NWS

Home | Current Version | Previous Version | Text Only | Print | Product List | Glossary On
Versions: 1 2 3 4 5 6 7 8 9 10 11 12
000
FTUS46 KLOX 191123
TAFVNY
TAF
KVNY 191123Z 1912/2012 VRB03KT P6SM SCT250
     FM192000 15008KT P6SM BKN250
     FM200200 VRB03KT P6SM BKN100
     FM200600 VRB03KT P6SM BKN015 OVC050=

USA.gov is the U.S. government's official web portal to all federal, state and local government web resources and services.